createdAt,value
2018-11-20T00:00:40.260Z,20.47
2018-11-20T00:03:40.636Z,20.17
2018-11-20T00:06:29.147Z,20.97
2018-11-20T00:09:26.531Z,21.30
2018-11-20T00:12:13.531Z,19.93
2018-11-20T00:15:07.817Z,19.27
2018-11-20T00:17:51.329Z,21.80
2018-11-20T00:20:47.049Z,21.53
2018-11-20T00:23:34.136Z,20.63
2018-11-20T00:26:21.528Z,19.80
2018-11-20T00:29:12.932Z,20.90
2018-11-20T00:32:00.145Z,20.60
2018-11-20T00:34:47.190Z,19.50
2018-11-20T00:37:42.237Z,19.87
2018-11-20T00:40:36.411Z,19.27
2018-11-20T00:43:16.457Z,19.43
2018-11-20T00:46:14.165Z,19.17
2018-11-20T00:49:01.256Z,18.90
2018-11-20T00:51:39.477Z,20.30
2018-11-20T00:54:29.424Z,19.73
2018-11-20T00:57:15.001Z,20.17
2018-11-20T01:00:00.721Z,20.03
2018-11-20T01:02:57.815Z,19.67
2018-11-20T01:05:58.377Z,18.90
2018-11-20T01:08:44.412Z,19.53
2018-11-20T01:11:35.405Z,19.10
2018-11-20T01:14:22.740Z,19.37
2018-11-20T01:17:11.260Z,19.63
2018-11-20T01:19:50.179Z,18.90
2018-11-20T01:22:32.328Z,19.37
2018-11-20T01:25:19.353Z,18.27
2018-11-20T01:28:03.779Z,18.73
2018-11-20T01:31:00.595Z,18.90
2018-11-20T01:33:49.919Z,19.20
2018-11-20T01:36:53.476Z,19.90
2018-11-20T01:39:47.830Z,20.03
2018-11-20T01:42:48.623Z,18.97
2018-11-20T01:45:55.460Z,20.53
2018-11-20T01:48:38.312Z,19.67
2018-11-20T01:51:20.624Z,19.00
2018-11-20T01:54:07.977Z,18.83
2018-11-20T01:56:50.977Z,17.40
2018-11-20T01:59:42.386Z,17.83
2018-11-20T02:02:26.229Z,18.33
2018-11-20T02:05:26.727Z,18.63
2018-11-20T02:08:07.183Z,18.93
2018-11-20T02:11:10.791Z,19.60
2018-11-20T02:14:03.559Z,18.63
2018-11-20T02:16:54.678Z,18.53
2018-11-20T02:19:41.672Z,18.67
2018-11-20T02:22:24.594Z,19.20
2018-11-20T02:25:06.945Z,18.20
2018-11-20T02:27:49.202Z,18.43
2018-11-20T02:30:40.175Z,17.80
2018-11-20T02:33:21.894Z,18.87
2018-11-20T02:36:11.608Z,18.27
2018-11-20T02:38:58.457Z,18.53
2018-11-20T02:41:45.881Z,18.20
2018-11-20T02:44:29.136Z,17.73
2018-11-20T02:47:23.317Z,18.43
2018-11-20T02:50:15.244Z,17.93
2018-11-20T02:53:03.008Z,17.83
2018-11-20T02:55:50.268Z,17.83
2018-11-20T02:58:37.766Z,18.00
2018-11-20T03:01:25.153Z,19.30
2018-11-20T03:04:28.818Z,17.33
2018-11-20T03:07:15.669Z,17.67
2018-11-20T03:10:16.352Z,17.73
2018-11-20T03:13:03.222Z,18.73
2018-11-20T03:16:03.458Z,17.17
2018-11-20T03:18:50.737Z,18.60
2018-11-20T03:21:40.664Z,17.23
2018-11-20T03:24:28.059Z,17.93
2018-11-20T03:27:14.393Z,18.47
2018-11-20T03:30:41.633Z,18.10
2018-11-20T03:33:41.982Z,18.37
2018-11-20T03:36:33.194Z,18.27
2018-11-20T03:39:36.564Z,17.97
2018-11-20T03:42:33.813Z,17.27
2018-11-20T03:45:20.725Z,17.37
2018-11-20T03:48:08.172Z,16.60
2018-11-20T03:51:02.748Z,17.20
2018-11-20T03:53:51.221Z,17.30
2018-11-20T03:56:38.141Z,16.83
2018-11-20T03:59:25.206Z,18.23
2018-11-20T04:02:29.087Z,17.13
2018-11-20T04:05:09.834Z,16.43
2018-11-20T04:07:58.280Z,17.03
2018-11-20T04:10:39.904Z,16.87
2018-11-20T04:13:34.244Z,17.40
2018-11-20T04:16:22.681Z,17.27
2018-11-20T04:19:09.735Z,16.83
2018-11-20T04:21:56.403Z,16.97
2018-11-20T04:24:43.533Z,16.60
2018-11-20T04:27:30.863Z,17.50
2018-11-20T04:30:54.139Z,16.57
2018-11-20T04:34:08.186Z,16.57
2018-11-20T04:37:29.657Z,16.63
2018-11-20T04:40:18.122Z,15.43
2018-11-20T04:43:05.714Z,15.90
2018-11-20T04:45:52.725Z,15.80
2018-11-20T04:48:39.972Z,16.77
2018-11-20T04:51:37.620Z,15.67
2018-11-20T04:54:31.721Z,16.33
2018-11-20T04:57:20.342Z,15.97
2018-11-20T05:00:11.693Z,15.60
2018-11-20T05:03:08.114Z,15.23
2018-11-20T05:05:55.588Z,15.70
2018-11-20T05:08:36.349Z,15.30
2018-11-20T05:11:36.880Z,16.23
2018-11-20T05:14:33.230Z,15.90
2018-11-20T05:17:34.041Z,16.03
2018-11-20T05:20:34.572Z,16.30
2018-11-20T05:23:27.353Z,15.63
2018-11-20T05:26:19.886Z,14.70
2018-11-20T05:29:14.710Z,15.83
2018-11-20T05:32:01.790Z,14.83
2018-11-20T05:34:56.212Z,15.47
2018-11-20T05:37:50.703Z,16.20
2018-11-20T05:40:45.909Z,14.07
2018-11-20T05:43:43.360Z,13.57
2018-11-20T05:46:30.671Z,14.80
2018-11-20T05:49:15.760Z,14.60
2018-11-20T05:52:03.349Z,15.47
2018-11-20T05:54:50.629Z,14.90
2018-11-20T05:57:37.920Z,14.57
2018-11-20T06:00:19.408Z,14.33
2018-11-20T06:03:07.879Z,13.30
2018-11-20T06:05:56.363Z,13.90
2018-11-20T06:08:43.196Z,13.03
2018-11-20T06:11:34.241Z,12.70
2018-11-20T06:14:34.962Z,13.73
2018-11-20T06:17:17.528Z,12.20
2018-11-20T06:20:15.009Z,14.13
2018-11-20T06:22:57.000Z,12.43
2018-11-20T06:25:42.780Z,12.30
2018-11-20T06:28:33.985Z,12.00
2018-11-20T06:31:21.453Z,11.37
2018-11-20T06:33:58.715Z,12.13
2018-11-20T06:36:50.136Z,13.07
2018-11-20T06:39:47.545Z,14.83
2018-11-20T06:42:34.798Z,12.47
2018-11-20T06:45:26.071Z,10.77
2018-11-20T06:48:14.813Z,11.87
2018-11-20T06:51:06.790Z,11.27
2018-11-20T06:54:00.840Z,9.50
2018-11-20T06:56:52.209Z,9.93
2018-11-20T06:59:39.486Z,9.70
2018-11-20T07:02:33.831Z,9.03
2018-11-20T07:05:24.817Z,10.60
2018-11-20T07:08:23.688Z,8.60
2018-11-20T07:11:10.637Z,8.77
2018-11-20T07:14:20.249Z,7.10
2018-11-20T07:17:17.675Z,7.33
2018-11-20T07:20:06.148Z,7.80
2018-11-20T07:22:54.809Z,8.37
2018-11-20T07:25:40.395Z,8.63
2018-11-20T07:28:27.363Z,9.03
2018-11-20T07:31:14.957Z,8.27
2018-11-20T07:34:15.484Z,9.17
2018-11-20T07:36:53.497Z,8.10
2018-11-20T07:39:56.748Z,8.97
2018-11-20T07:42:45.432Z,8.03
2018-11-20T07:45:46.224Z,9.23
2018-11-20T07:48:35.131Z,8.67
2018-11-20T07:51:26.678Z,9.27
2018-11-20T07:54:09.258Z,9.10
2018-11-20T07:56:56.569Z,8.00
2018-11-20T07:59:53.613Z,8.47
2018-11-20T08:02:33.396Z,9.07
2018-11-20T08:05:14.296Z,8.97
2018-11-20T08:08:08.488Z,8.40
2018-11-20T08:11:09.027Z,8.13
2018-11-20T08:13:57.127Z,8.70
2018-11-20T08:16:54.529Z,8.73
2018-11-20T08:19:55.048Z,8.53
2018-11-20T08:22:46.292Z,8.13
2018-11-20T08:25:49.979Z,8.47
2018-11-20T08:28:36.997Z,8.20
2018-11-20T08:31:28.317Z,8.37
2018-11-20T08:34:16.898Z,8.50
2018-11-20T08:37:04.234Z,8.27
2018-11-20T08:39:51.647Z,8.47
2018-11-20T08:42:52.152Z,7.77
2018-11-20T08:45:40.641Z,7.77
2018-11-20T08:48:28.062Z,7.27
2018-11-20T08:51:16.393Z,7.97
2018-11-20T08:54:10.832Z,7.67
2018-11-20T08:56:59.285Z,6.87
2018-11-20T08:59:48.924Z,7.30
2018-11-20T09:02:35.283Z,6.60
2018-11-20T09:05:25.746Z,7.37
2018-11-20T09:08:12.500Z,7.00
2018-11-20T09:11:04.289Z,7.50
2018-11-20T09:13:55.995Z,6.80
2018-11-20T09:16:47.180Z,7.13
2018-11-20T09:19:36.164Z,6.73
2018-11-20T09:22:23.414Z,6.67
2018-11-20T09:25:10.656Z,6.60
2018-11-20T09:28:00.221Z,6.63
2018-11-20T09:30:51.614Z,7.00
2018-11-20T09:33:39.069Z,6.40
2018-11-20T09:36:30.408Z,6.90
2018-11-20T09:39:17.347Z,7.30
2018-11-20T09:42:14.767Z,6.77
2018-11-20T09:45:19.488Z,6.90
2018-11-20T09:48:06.669Z,6.40
2018-11-20T09:50:54.031Z,6.80
2018-11-20T09:53:42.472Z,6.73
2018-11-20T09:56:46.152Z,6.47
2018-11-20T09:59:43.427Z,5.93
2018-11-20T10:02:32.725Z,6.73
2018-11-20T10:05:36.253Z,6.53
2018-11-20T10:08:23.345Z,5.60
2018-11-20T10:11:12.032Z,6.27
2018-11-20T10:13:59.202Z,6.57
2018-11-20T10:16:46.333Z,5.93
2018-11-20T10:19:36.417Z,5.83
2018-11-20T10:22:23.331Z,5.63
2018-11-20T10:25:10.541Z,5.73
2018-11-20T10:27:57.446Z,6.00
2018-11-20T10:30:44.409Z,5.80
2018-11-20T10:33:25.915Z,5.80
2018-11-20T10:36:11.130Z,5.23
2018-11-20T10:39:05.832Z,5.90
2018-11-20T10:41:53.485Z,6.23
2018-11-20T10:44:40.466Z,5.40
2018-11-20T10:47:37.896Z,5.37
2018-11-20T10:50:25.227Z,5.97
2018-11-20T10:53:22.879Z,5.60
2018-11-20T10:56:00.305Z,5.67
2018-11-20T10:58:48.828Z,6.40
2018-11-20T11:01:36.024Z,5.63
2018-11-20T11:04:30.442Z,5.80
2018-11-20T11:07:18.462Z,6.53
2018-11-20T11:10:10.831Z,6.13
2018-11-20T11:13:04.866Z,5.60
2018-11-20T11:16:00.446Z,5.77
2018-11-20T11:18:48.921Z,5.53
2018-11-20T11:21:36.058Z,5.80
2018-11-20T11:24:43.258Z,5.30
2018-11-20T11:27:46.862Z,5.13
2018-11-20T11:30:35.980Z,5.40
2018-11-20T11:33:42.679Z,6.00
2018-11-20T11:36:29.674Z,5.63
2018-11-20T11:39:13.109Z,5.57
2018-11-20T11:42:00.575Z,6.57
2018-11-20T11:44:47.864Z,6.10
2018-11-20T11:47:42.085Z,5.53
2018-11-20T11:50:27.841Z,5.70
2018-11-20T11:53:25.603Z,5.90
2018-11-20T11:56:15.441Z,5.77
2018-11-20T11:59:04.710Z,5.60
2018-11-20T12:04:52.311Z,5.57
2018-11-20T12:07:47.153Z,5.37
2018-11-20T12:10:41.002Z,6.00
2018-11-20T12:13:29.427Z,6.07
2018-11-20T12:16:17.628Z,5.60
2018-11-20T12:19:11.934Z,6.50
2018-11-20T12:22:06.205Z,7.83
2018-11-20T12:24:53.368Z,6.00
2018-11-20T12:27:40.900Z,6.67
2018-11-20T12:30:32.606Z,5.80
2018-11-20T12:33:31.354Z,5.73
2018-11-20T12:36:23.747Z,5.57
2018-11-20T12:39:19.841Z,5.30
2018-11-20T12:42:10.279Z,25.27
2018-11-20T12:44:54.384Z,12.37
2018-11-20T12:47:50.400Z,19.07
2018-11-20T12:50:38.874Z,10.90
2018-11-20T12:53:26.010Z,24.00
2018-11-20T12:56:14.480Z,11.17
2018-11-20T12:58:57.345Z,13.20
2018-11-20T13:01:44.243Z,7.20
2018-11-20T13:04:51.081Z,8.10
2018-11-20T13:07:42.062Z,6.13
2018-11-20T13:10:33.961Z,7.33
2018-11-20T13:13:36.622Z,6.17
2018-11-20T13:16:14.492Z,5.73
2018-11-20T13:19:08.469Z,6.37
2018-11-20T13:21:55.686Z,5.80
2018-11-20T13:24:42.870Z,5.77
2018-11-20T13:27:34.029Z,7.33
2018-11-20T13:30:40.957Z,5.50
2018-11-20T13:33:28.775Z,8.20
2018-11-20T13:36:16.010Z,7.70
2018-11-20T13:39:07.403Z,7.97
2018-11-20T13:42:06.436Z,6.40
2018-11-20T13:44:55.535Z,6.00
2018-11-20T13:47:42.783Z,5.57
2018-11-20T13:50:29.841Z,5.53
2018-11-20T13:53:16.348Z,6.30
2018-11-20T13:56:22.820Z,7.23
2018-11-20T13:59:14.648Z,5.50
2018-11-20T14:02:18.036Z,6.73
2018-11-20T14:05:09.401Z,6.13
2018-11-20T14:07:57.849Z,6.00
2018-11-20T14:11:04.468Z,6.00
2018-11-20T14:13:45.911Z,5.53
2018-11-20T14:16:32.611Z,6.70
2018-11-20T14:19:24.103Z,6.27
2018-11-20T14:22:11.173Z,6.47
2018-11-20T14:25:03.226Z,5.30
2018-11-20T14:27:43.044Z,5.63
2018-11-20T14:30:30.115Z,8.67
2018-11-20T14:33:20.597Z,7.90
2018-11-20T14:36:11.684Z,8.27
2018-11-20T14:38:56.643Z,8.10
2018-11-20T14:41:42.767Z,5.97
2018-11-20T14:44:24.327Z,5.80
2018-11-20T14:47:10.981Z,6.03
2018-11-20T14:50:11.530Z,4.93
2018-11-20T14:52:49.701Z,8.30
2018-11-20T14:55:49.904Z,7.43
2018-11-20T14:58:38.361Z,15.60
2018-11-20T15:01:18.941Z,15.53
2018-11-20T15:04:05.937Z,7.53
2018-11-20T15:07:00.309Z,6.90
2018-11-20T15:09:38.638Z,6.70
2018-11-20T15:12:20.640Z,6.23
2018-11-20T15:15:07.988Z,9.33
2018-11-20T15:18:08.509Z,6.57
2018-11-20T15:20:55.409Z,8.93
2018-11-20T15:23:55.944Z,9.80
2018-11-20T15:26:42.450Z,6.70
2018-11-20T15:29:49.063Z,7.27
2018-11-20T15:32:35.929Z,12.83
2018-11-20T15:35:14.989Z,9.23
2018-11-20T15:38:06.192Z,6.93
2018-11-20T15:40:53.014Z,6.37
2018-11-20T15:43:40.207Z,7.13
2018-11-20T15:46:38.512Z,7.40
2018-11-20T15:49:26.820Z,6.40
2018-11-20T15:52:18.114Z,13.37
2018-11-20T15:55:05.151Z,8.00
2018-11-20T15:57:50.786Z,6.60
2018-11-20T16:00:45.101Z,7.07
2018-11-20T16:03:33.607Z,8.27
2018-11-20T16:06:22.090Z,7.53
2018-11-20T16:09:09.102Z,7.60
2018-11-20T16:12:03.154Z,7.53
2018-11-20T16:14:46.337Z,6.67
2018-11-20T16:17:40.826Z,6.63
2018-11-20T16:20:19.161Z,6.43
2018-11-20T16:23:06.340Z,6.50
2018-11-20T16:26:39.093Z,7.30
2018-11-20T16:29:38.665Z,6.87
2018-11-20T16:32:34.826Z,8.03
2018-11-20T16:35:34.645Z,7.37
2018-11-20T16:38:37.285Z,8.33
2018-11-20T16:41:23.976Z,8.07
2018-11-20T16:44:11.429Z,7.67
2018-11-20T16:47:08.310Z,7.10
2018-11-20T16:49:54.709Z,7.43
2018-11-20T16:53:00.558Z,7.10
2018-11-20T16:55:46.386Z,8.23
2018-11-20T16:58:39.629Z,7.27
2018-11-20T17:01:38.916Z,7.63
2018-11-20T17:04:21.616Z,10.03
2018-11-20T17:07:09.265Z,16.87
2018-11-20T17:09:59.754Z,11.50
2018-11-20T17:12:45.972Z,12.33
2018-11-20T17:15:48.539Z,12.13
2018-11-20T17:18:44.800Z,9.03
2018-11-20T17:21:35.100Z,8.40
2018-11-20T17:24:21.445Z,7.43
2018-11-20T17:27:14.928Z,7.87
2018-11-20T17:30:01.651Z,8.73
2018-11-20T17:32:47.850Z,8.93
2018-11-20T17:35:34.139Z,9.03
2018-11-20T17:38:36.790Z,10.00
2018-11-20T17:41:30.530Z,8.60
2018-11-20T17:44:20.929Z,9.20
2018-11-20T17:46:57.395Z,9.33
2018-11-20T17:49:45.103Z,8.07
2018-11-20T17:52:38.665Z,8.20
2018-11-20T17:55:27.422Z,8.30
2018-11-20T17:58:10.204Z,8.23
2018-11-20T18:00:56.185Z,7.43
2018-11-20T18:03:42.248Z,7.40
2018-11-20T18:06:20.821Z,8.20
2018-11-20T18:09:11.076Z,7.97
2018-11-20T18:12:13.801Z,7.70
2018-11-20T18:15:04.018Z,8.67
2018-11-20T18:17:51.668Z,7.87
2018-11-20T18:20:37.892Z,8.00
2018-11-20T18:23:24.070Z,8.17
2018-11-20T18:26:04.613Z,7.87
2018-11-20T18:28:52.543Z,13.93
2018-11-20T18:31:40.321Z,13.43
2018-11-20T18:34:26.558Z,16.20
2018-11-20T18:37:14.238Z,20.07
2018-11-20T18:39:55.223Z,14.93
2018-11-20T18:42:41.655Z,10.87
2018-11-20T18:45:31.972Z,10.77
2018-11-20T18:48:25.617Z,8.47
2018-11-20T18:51:22.599Z,8.33
2018-11-20T18:54:15.771Z,9.30
2018-11-20T18:57:15.427Z,8.17
2018-11-20T19:00:05.738Z,9.60
2018-11-20T19:03:08.455Z,10.07
2018-11-20T19:05:54.483Z,11.00
2018-11-20T19:08:57.102Z,10.83
2018-11-20T19:11:50.711Z,10.27
2018-11-20T19:14:41.043Z,9.93
2018-11-20T19:17:34.519Z,9.17
2018-11-20T19:20:23.099Z,10.03
2018-11-20T19:23:04.651Z,8.93
2018-11-20T19:25:52.330Z,8.83
2018-11-20T19:28:38.447Z,9.40
2018-11-20T19:31:24.601Z,9.13
2018-11-20T19:34:18.542Z,8.57
2018-11-20T19:37:06.283Z,10.50
2018-11-20T19:40:01.818Z,9.47
2018-11-20T19:42:48.243Z,9.87
2018-11-20T19:45:45.462Z,9.57
2018-11-20T19:48:31.820Z,10.10
2018-11-20T19:51:29.994Z,12.57
2018-11-20T19:54:16.297Z,11.30
2018-11-20T19:57:03.032Z,10.90
2018-11-20T19:59:49.371Z,8.53
2018-11-20T20:02:40.773Z,10.27
2018-11-20T20:05:28.190Z,9.60
2018-11-20T20:08:27.797Z,9.40
2018-11-20T20:11:29.154Z,9.97
2018-11-20T20:14:19.347Z,9.33
2018-11-20T20:17:12.990Z,9.17
2018-11-20T20:19:59.097Z,10.87
2018-11-20T20:22:49.497Z,9.50
2018-11-20T20:25:35.476Z,11.40
2018-11-20T20:28:21.647Z,77.47
2018-11-20T20:31:07.504Z,21.63
2018-11-20T20:33:53.876Z,21.43
2018-11-20T20:36:44.711Z,20.67
2018-11-20T20:39:50.781Z,14.97
2018-11-20T20:42:41.464Z,14.33
2018-11-20T20:45:35.895Z,12.50
2018-11-20T20:48:16.195Z,13.87
2018-11-20T20:51:06.562Z,14.00
2018-11-20T20:53:57.402Z,10.93
2018-11-20T20:56:43.195Z,12.17
2018-11-20T20:59:31.664Z,12.20
2018-11-20T21:02:17.662Z,14.13
2018-11-20T21:05:02.097Z,15.57
2018-11-20T21:07:48.471Z,16.53
2018-11-20T21:10:29.569Z,13.20
2018-11-20T21:13:15.876Z,13.10
2018-11-20T21:16:02.303Z,14.00
2018-11-20T21:18:49.981Z,11.47
2018-11-20T21:21:38.345Z,12.70
2018-11-20T21:24:34.888Z,10.63
2018-11-20T21:27:13.079Z,10.60
2018-11-20T21:29:58.954Z,10.27
2018-11-20T21:32:45.276Z,11.50
2018-11-20T21:35:31.260Z,11.17
2018-11-20T21:38:17.174Z,10.90
2018-11-20T21:40:56.100Z,9.83
2018-11-20T21:43:43.719Z,10.00
2018-11-20T21:46:27.221Z,10.00
2018-11-20T21:49:20.606Z,10.47
2018-11-20T21:52:11.176Z,11.87
2018-11-20T21:54:57.733Z,13.67
2018-11-20T21:57:54.260Z,12.73
2018-11-20T22:00:50.480Z,11.70
2018-11-20T22:03:47.220Z,10.67
2018-11-20T22:06:33.696Z,10.83
2018-11-20T22:09:24.237Z,11.10
2018-11-20T22:12:14.551Z,11.33
2018-11-20T22:15:11.240Z,11.43
2018-11-20T22:17:57.467Z,11.07
2018-11-20T22:20:45.149Z,10.80
2018-11-20T22:23:23.870Z,11.90
2018-11-20T22:26:23.369Z,11.47
2018-11-20T22:29:20.061Z,11.13
2018-11-20T22:32:06.646Z,11.57
2018-11-20T22:35:07.806Z,11.73
2018-11-20T22:37:56.555Z,10.80
2018-11-20T22:40:42.841Z,12.30
2018-11-20T22:43:29.014Z,12.73
2018-11-20T22:46:16.671Z,12.40
2018-11-20T22:49:06.301Z,11.43
2018-11-20T22:51:47.732Z,11.63
2018-11-20T22:54:42.793Z,13.50
2018-11-20T22:57:39.511Z,13.77
2018-11-20T23:00:28.970Z,14.00
2018-11-20T23:03:16.725Z,12.83
2018-11-20T23:06:01.813Z,13.07
2018-11-20T23:08:30.315Z,13.40
2018-11-20T23:10:58.929Z,12.97
2018-11-20T23:13:27.557Z,14.57
2018-11-20T23:15:56.074Z,16.17
2018-11-20T23:18:24.622Z,16.77
2018-11-20T23:20:53.136Z,17.30
2018-11-20T23:23:21.749Z,18.10
2018-11-20T23:25:50.198Z,23.73
2018-11-20T23:28:18.722Z,20.07
2018-11-20T23:30:47.532Z,19.10
2018-11-20T23:33:16.100Z,17.97
2018-11-20T23:35:44.803Z,18.33
2018-11-20T23:38:13.358Z,18.60
2018-11-20T23:40:41.966Z,19.03
2018-11-20T23:43:10.751Z,17.47
2018-11-20T23:45:39.276Z,16.57
2018-11-20T23:48:07.817Z,16.67
2018-11-20T23:50:36.376Z,16.80
2018-11-20T23:53:05.020Z,16.30
2018-11-20T23:55:33.521Z,17.47
2018-11-20T23:58:02.103Z,17.00
